This is the latest recevied weather packets stored in our database for station/object KK7RJD. If no packets are shown the sender has not sent any weather packets the latest 1 day(s).
| Time | Temp. | Humidity | Pressure | Rain* | Wind** | Luminosity | Snow |
|---|---|---|---|---|---|---|---|
| 1778058297 | -1.67° C | 74% | 1018.6 hPa | 0 mm | - | 0 W/m² | - |
| 1778057690 | -1.11° C | 72% | 1018.5 hPa | 0 mm | - | 0 W/m² | - |
| 1778057386 | -1.11° C | 71% | 1018.4 hPa | 0 mm | - | 0 W/m² | - |
| 1778057083 | -1.11° C | 72% | 1018.7 hPa | 0 mm | - | 0 W/m² | - |
| 1778056779 | -1.11° C | 72% | 1018.6 hPa | 0 mm | - | 0 W/m² | - |
| 1778056477 | -1.11° C | 72% | 1018.6 hPa | 0 mm | - | 0 W/m² | - |
| 1778055871 | -1.11° C | 72% | 1018.6 hPa | 0 mm | - | 0 W/m² | - |
| 1778055265 | -1.11° C | 71% | 1018.7 hPa | 0 mm | - | 0 W/m² | - |
| 1778054962 | -1.11° C | 71% | 1018.7 hPa | 0 mm | - | 0 W/m² | - |
| 1778054658 | -1.11° C | 71% | 1018.9 hPa | 0 mm | - | 0 W/m² | - |
| 1778054054 | -1.11° C | 71% | 1018.6 hPa | 0 mm | - | 0 W/m² | - |
| 1778053145 | -1.11° C | 72% | 1019 hPa | 0 mm | - | 0 W/m² | - |
| 1778052843 | -1.11° C | 73% | 1018.9 hPa | 0 mm | - | 0 W/m² | - |
| 1778052237 | -2.22° C | 77% | 1019.1 hPa | 0 mm | - | 0 W/m² | - |
| 1778051934 | -2.22° C | 78% | 1018.9 hPa | 0 mm | - | 0 W/m² | - |
| 1778051026 | -2.22° C | 76% | 1019 hPa | 0 mm | - | 0 W/m² | - |
| 1778050723 | -2.22° C | 76% | 1018.9 hPa | 0 mm | - | 0 W/m² | - |
| 1778050421 | -1.67° C | 76% | 1019 hPa | 0 mm | - | 0 W/m² | - |
| 1778049510 | -1.67° C | 75% | 1019.1 hPa | 0 mm | - | 0 W/m² | - |
| 1778048906 | -1.11° C | 75% | 1019.2 hPa | 0 mm | - | 0 W/m² | - |
| 1778048603 | -1.11° C | 76% | 1019.2 hPa | 0 mm | - | 0 W/m² | - |
| 1778047996 | -1.11° C | 75% | 1019 hPa | 0 mm | - | 0 W/m² | - |
| 1778047088 | 0° C | 70% | 1019 hPa | 0 mm | - | 0 W/m² | - |
| 1778046786 | 0.56° C | 68% | 1019.1 hPa | 0 mm | - | 0 W/m² | - |
| 1778046179 | 0.56° C | 68% | 1019 hPa | 0 mm | - | 0 W/m² | - |
* Rain latest hour (hover to see other rain measurements)
** Current wind speed in m/s (hover to see current wind gust speed)